Time;durP1;ratioP1;P1;durP2;ratioP2;P2;SDS_P1;SDS_P2;PMS_P1;PMS_P2;Temp;Humidity;BMP_temperature;BMP_pressure;BME280_temperature;BME280_humidity;BME280_pressure;Samples;Min_cycle;Max_cycle;Signal;HPM_P1;HPM_P2
2021/09/18 00:01:32;;;;;;;86.53;35.92;;;11.90;99.90;;;;;;4981693;28;20070;-77
2021/09/18 00:03:59;;;;;;;83.13;38.15;;;11.90;99.90;;;;;;4979274;28;20343;-75
2021/09/18 00:06:26;;;;;;;90.90;39.17;;;11.90;99.90;;;;;;4982551;28;20070;-75
2021/09/18 00:08:53;;;;;;;97.75;42.85;;;11.60;99.90;;;;;;4983539;28;20474;-75
2021/09/18 00:11:20;;;;;;;85.82;37.80;;;11.60;99.90;;;;;;4954447;28;20042;-75
2021/09/18 00:13:46;;;;;;;99.43;40.35;;;11.50;99.90;;;;;;4970489;28;20681;-77
2021/09/18 00:16:13;;;;;;;91.25;39.17;;;11.50;99.90;;;;;;4986875;28;20537;-74
2021/09/18 00:18:40;;;;;;;80.55;35.95;;;11.50;99.90;;;;;;4987042;28;20455;-76
2021/09/18 00:21:07;;;;;;;101.28;40.30;;;11.40;99.90;;;;;;4986461;28;20042;-77
2021/09/18 00:23:34;;;;;;;106.85;40.75;;;11.40;99.90;;;;;;4988117;28;20050;-75
2021/09/18 00:26:01;;;;;;;99.30;40.05;;;11.50;99.90;;;;;;4986849;28;20050;-75
2021/09/18 00:28:28;;;;;;;100.15;40.63;;;11.50;99.90;;;;;;4988911;28;20055;-75
2021/09/18 00:30:55;;;;;;;84.78;37.88;;;11.60;99.90;;;;;;4987572;28;20047;-74
2021/09/18 00:33:22;;;;;;;94.47;38.70;;;11.50;99.90;;;;;;4986365;28;20526;-76
2021/09/18 00:35:48;;;;;;;110.88;44.35;;;11.50;99.90;;;;;;4958385;28;20120;-75
2021/09/18 00:38:15;;;;;;;109.93;43.58;;;11.60;99.90;;;;;;4985316;28;20847;-75
2021/09/18 00:40:42;;;;;;;93.03;41.78;;;11.60;99.90;;;;;;4980787;28;20144;-76
2021/09/18 00:43:09;;;;;;;106.50;42.17;;;11.50;99.90;;;;;;4969773;28;20053;-75
2021/09/18 00:45:36;;;;;;;113.07;45.38;;;11.60;99.90;;;;;;4985861;28;20105;-75
2021/09/18 00:48:03;;;;;;;117.97;45.58;;;11.80;99.90;;;;;;5000977;28;20058;-76
2021/09/18 00:50:30;;;;;;;130.20;47.97;;;11.60;99.90;;;;;;4985720;28;20042;-75
2021/09/18 00:52:58;;;;;;;105.05;42.88;;;11.50;99.90;;;;;;4980275;28;20355;-75
2021/09/18 00:55:25;;;;;;;100.78;40.38;;;11.50;99.90;;;;;;4986745;28;20084;-75
2021/09/18 00:57:52;;;;;;;95.15;39.20;;;11.50;99.90;;;;;;5000878;28;20719;-75
2021/09/18 01:00:19;;;;;;;92.80;41.70;;;11.40;99.90;;;;;;4986203;28;20054;-75
2021/09/18 01:02:46;;;;;;;89.90;37.47;;;11.30;99.90;;;;;;4985286;28;20065;-75
2021/09/18 01:05:13;;;;;;;76.85;34.05;;;11.20;99.90;;;;;;4984082;28;20433;-75
2021/09/18 01:07:40;;;;;;;94.72;37.38;;;11.20;99.90;;;;;;4986849;28;20055;-75
2021/09/18 01:10:08;;;;;;;96.68;36.35;;;11.20;99.90;;;;;;4984430;28;20140;-75
2021/09/18 01:12:59;;;;;;;91.70;35.38;;;11.20;99.90;;;;;;4984221;28;20101;-75
2021/09/18 01:15:28;;;;;;;83.45;33.50;;;11.10;99.90;;;;;;4965719;28;20051;-75
2021/09/18 01:17:56;;;;;;;86.03;35.47;;;11.10;99.90;;;;;;4981994;28;20050;-76
2021/09/18 01:20:23;;;;;;;99.25;38.83;;;11.00;99.90;;;;;;4973372;28;20282;-75
2021/09/18 01:22:51;;;;;;;121.57;40.53;;;11.00;99.90;;;;;;4987138;28;20057;-75
2021/09/18 01:25:18;;;;;;;179.82;48.22;;;11.00;99.90;;;;;;4984927;28;20113;-75
2021/09/18 01:27:45;;;;;;;154.30;45.58;;;11.10;99.90;;;;;;4984930;28;20054;-75
2021/09/18 01:30:28;;;;;;;145.43;42.60;;;11.20;99.90;;;;;;4968389;28;20069;-74
2021/09/18 01:32:56;;;;;;;300.13;56.17;;;11.20;99.90;;;;;;4981626;28;20324;-75
2021/09/18 01:35:24;;;;;;;367.92;65.00;;;11.20;99.90;;;;;;4984016;28;20054;-75
2021/09/18 01:37:51;;;;;;;537.03;74.38;;;11.10;99.90;;;;;;4984359;28;20466;-75
2021/09/18 01:40:24;;;;;;;472.83;76.82;;;11.20;99.90;;;;;;4984363;28;20050;-75
2021/09/18 01:42:51;;;;;;;496.92;71.93;;;11.20;99.90;;;;;;4984872;28;20081;-76
2021/09/18 01:45:18;;;;;;;504.58;75.35;;;11.10;99.90;;;;;;4987389;28;20042;-75
2021/09/18 01:47:55;;;;;;;457.77;71.63;;;11.00;99.90;;;;;;4951150;28;20308;-76
2021/09/18 01:50:51;;;;;;;481.90;70.55;;;10.70;99.90;;;;;;4990095;28;20062;-75
2021/09/18 01:53:21;;;;;;;531.78;77.50;;;10.60;99.90;;;;;;4981632;28;20145;-76
2021/09/18 01:55:49;;;;;;;409.63;70.32;;;10.70;99.90;;;;;;4988877;28;20046;-75
2021/09/18 01:58:16;;;;;;;450.67;71.60;;;10.70;99.90;;;;;;4983484;28;20061;-75
2021/09/18 02:00:52;;;;;;;455.08;76.28;;;10.80;99.90;;;;;;4987869;28;20120;-75
2021/09/18 02:03:19;;;;;;;480.98;74.28;;;10.80;99.90;;;;;;4998412;28;20471;-76
2021/09/18 02:05:47;;;;;;;420.45;70.82;;;10.70;99.90;;;;;;4980493;28;20055;-75
2021/09/18 02:08:14;;;;;;;395.75;68.30;;;10.60;99.90;;;;;;4947315;28;20050;-76
2021/09/18 02:10:41;;;;;;;352.60;65.13;;;10.60;99.90;;;;;;4964292;28;20051;-77
2021/09/18 02:13:09;;;;;;;280.73;59.50;;;10.70;99.90;;;;;;4974857;28;20085;-75
2021/09/18 02:15:37;;;;;;;400.40;67.85;;;10.60;99.90;;;;;;4985038;28;20058;-75
2021/09/18 02:18:05;;;;;;;307.10;59.28;;;10.50;99.90;;;;;;4968692;28;20085;-75
2021/09/18 02:20:33;;;;;;;310.30;60.67;;;10.50;99.90;;;;;;4968220;28;20503;-75
2021/09/18 02:23:01;;;;;;;334.98;61.85;;;10.40;99.90;;;;;;4967272;28;20050;-75
2021/09/18 02:25:28;;;;;;;277.30;56.20;;;10.30;99.90;;;;;;4958534;28;20050;-77
2021/09/18 02:27:55;;;;;;;243.27;57.15;;;10.10;99.90;;;;;;4983422;28;20089;-77
2021/09/18 02:30:26;;;;;;;243.10;53.50;;;10.10;99.90;;;;;;4983342;28;20066;-76
2021/09/18 02:32:54;;;;;;;317.33;59.92;;;10.10;99.90;;;;;;4985782;28;20101;-75
2021/09/18 02:35:22;;;;;;;288.25;57.83;;;10.10;99.90;;;;;;4984855;28;20046;-74
2021/09/18 02:37:52;;;;;;;227.93;54.72;;;10.10;99.90;;;;;;4983480;28;20056;-75
2021/09/18 02:40:21;;;;;;;288.95;61.92;;;10.10;99.90;;;;;;4982252;28;20049;-75
2021/09/18 02:42:50;;;;;;;264.08;60.17;;;10.10;99.90;;;;;;4984899;28;20578;-75
2021/09/18 02:45:18;;;;;;;285.75;63.97;;;10.30;99.90;;;;;;4983299;28;20050;-75
2021/09/18 02:47:45;;;;;;;360.88;66.25;;;10.30;99.90;;;;;;4984015;28;20567;-77
2021/09/18 02:50:13;;;;;;;219.90;51.03;;;10.20;99.90;;;;;;4983667;28;20116;-74
2021/09/18 02:52:40;;;;;;;174.07;48.10;;;10.30;99.90;;;;;;4979110;28;20419;-77
2021/09/18 02:55:08;;;;;;;245.07;54.38;;;10.40;99.90;;;;;;4982905;28;20086;-74
2021/09/18 02:57:35;;;;;;;248.43;52.78;;;10.40;99.90;;;;;;4984180;28;20052;-75
2021/09/18 03:00:04;;;;;;;274.08;55.85;;;10.30;99.90;;;;;;4983641;28;20060;-76
2021/09/18 03:02:31;;;;;;;331.02;61.40;;;10.40;99.90;;;;;;4977620;28;20042;-75
2021/09/18 03:04:59;;;;;;;302.75;60.35;;;10.40;99.90;;;;;;4985725;28;20042;-75
2021/09/18 03:07:29;;;;;;;241.65;52.22;;;10.20;99.90;;;;;;4977387;28;20058;-74
2021/09/18 03:09:56;;;;;;;398.95;66.28;;;10.10;99.90;;;;;;4982327;28;20462;-75
2021/09/18 03:12:23;;;;;;;402.02;65.47;;;10.00;99.90;;;;;;4983493;28;20573;-76
2021/09/18 03:14:50;;;;;;;286.20;57.60;;;9.90;99.90;;;;;;4994528;28;20046;-75
2021/09/18 03:17:17;;;;;;;153.85;44.47;;;9.90;99.90;;;;;;4994701;28;20178;-76
2021/09/18 03:19:43;;;;;;;339.23;60.03;;;9.80;99.90;;;;;;4966020;28;20050;-76
2021/09/18 03:22:10;;;;;;;369.17;62.28;;;9.90;99.90;;;;;;4994546;28;20250;-74
2021/09/18 03:24:37;;;;;;;449.23;67.25;;;9.90;99.90;;;;;;4982241;28;20054;-74
2021/09/18 03:27:04;;;;;;;429.13;67.28;;;9.80;99.90;;;;;;4965830;28;20050;-74
2021/09/18 03:29:30;;;;;;;284.10;50.08;;;9.80;99.90;;;;;;4949876;28;20620;-74
2021/09/18 03:31:57;;;;;;;311.23;58.00;;;9.80;99.90;;;;;;4965836;28;20046;-76
2021/09/18 03:34:24;;;;;;;217.13;48.45;;;9.80;99.90;;;;;;4985285;28;20417;-75
2021/09/18 03:36:53;;;;;;;268.70;54.28;;;9.70;99.90;;;;;;4964654;28;20066;-75
2021/09/18 03:39:20;;;;;;;219.40;48.05;;;9.70;99.90;;;;;;4983952;28;20055;-74
2021/09/18 03:41:47;;;;;;;237.98;52.08;;;9.60;99.90;;;;;;4983423;28;20130;-75
2021/09/18 03:44:14;;;;;;;182.63;47.13;;;9.40;99.90;;;;;;4971410;28;20412;-75
2021/09/18 03:46:40;;;;;;;178.43;47.53;;;9.50;99.90;;;;;;4985268;28;20066;-75
2021/09/18 03:49:07;;;;;;;220.27;50.17;;;9.60;99.90;;;;;;4986136;28;20046;-75
2021/09/18 03:51:34;;;;;;;154.90;43.38;;;9.60;99.90;;;;;;4985462;28;20093;-75
2021/09/18 03:54:01;;;;;;;246.00;53.40;;;9.50;99.90;;;;;;4965390;28;20054;-75
2021/09/18 03:56:27;;;;;;;253.73;53.60;;;9.70;99.90;;;;;;4969568;28;20112;-75
2021/09/18 03:58:54;;;;;;;209.85;50.00;;;9.80;99.90;;;;;;4985063;28;20043;-75
2021/09/18 04:01:21;;;;;;;151.52;44.42;;;9.70;99.90;;;;;;4985897;28;20342;-75
2021/09/18 04:03:48;;;;;;;122.07;40.53;;;9.70;99.90;;;;;;4990468;28;20108;-75
2021/09/18 04:06:15;;;;;;;160.88;43.45;;;9.70;99.90;;;;;;4986119;28;20338;-74
2021/09/18 04:08:42;;;;;;;157.23;45.22;;;9.60;99.90;;;;;;4985078;28;20062;-74
2021/09/18 04:11:08;;;;;;;176.02;44.72;;;9.40;99.90;;;;;;4983332;28;20242;-75
2021/09/18 04:13:35;;;;;;;118.95;39.97;;;9.40;99.90;;;;;;4953047;28;20640;-75
2021/09/18 04:16:02;;;;;;;149.88;42.78;;;9.40;99.90;;;;;;4985727;28;20058;-74
2021/09/18 04:18:29;;;;;;;121.13;39.90;;;9.30;99.90;;;;;;4985422;28;20507;-74
2021/09/18 04:20:55;;;;;;;98.63;36.90;;;9.40;99.90;;;;;;4985141;28;20117;-75
2021/09/18 04:23:22;;;;;;;170.30;45.13;;;9.30;99.90;;;;;;4968967;28;20367;-75
2021/09/18 04:25:49;;;;;;;135.85;40.72;;;9.20;99.90;;;;;;4986247;28;20074;-75
2021/09/18 04:28:16;;;;;;;205.82;46.78;;;9.10;99.90;;;;;;4985082;28;20251;-75
2021/09/18 04:30:43;;;;;;;190.52;49.05;;;9.10;99.90;;;;;;5001835;28;20054;-75
2021/09/18 04:33:09;;;;;;;277.70;59.20;;;9.00;99.90;;;;;;4987042;28;20054;-75
2021/09/18 04:35:36;;;;;;;329.00;59.72;;;9.00;99.90;;;;;;4989666;28;20104;-75
2021/09/18 04:38:05;;;;;;;222.55;54.35;;;9.10;99.90;;;;;;4985761;28;20042;-75
2021/09/18 04:40:32;;;;;;;310.25;59.50;;;9.10;99.90;;;;;;4985950;28;20132;-75
2021/09/18 04:42:59;;;;;;;383.90;67.28;;;9.00;99.90;;;;;;4983931;28;20050;-75
2021/09/18 04:45:26;;;;;;;293.88;62.38;;;9.00;99.90;;;;;;4984412;28;20046;-75
2021/09/18 04:47:53;;;;;;;167.90;47.83;;;9.10;99.90;;;;;;4984771;28;20058;-75
2021/09/18 04:50:20;;;;;;;197.40;50.58;;;9.10;99.90;;;;;;4985379;28;20050;-75
2021/09/18 04:52:47;;;;;;;353.58;62.47;;;8.90;99.90;;;;;;4980758;28;20100;-75
2021/09/18 04:55:14;;;;;;;386.50;67.60;;;8.90;99.90;;;;;;4991035;28;20046;-74
2021/09/18 04:57:42;;;;;;;231.30;51.25;;;8.80;99.90;;;;;;4983695;28;20857;-75
2021/09/18 05:00:09;;;;;;;221.15;52.83;;;8.80;99.90;;;;;;4968646;28;20526;-75
2021/09/18 05:02:36;;;;;;;139.02;43.58;;;8.70;99.90;;;;;;4986716;28;20054;-75
2021/09/18 05:05:06;;;;;;;101.93;38.60;;;8.70;99.90;;;;;;4986883;28;20043;-75
2021/09/18 05:07:32;;;;;;;199.10;49.55;;;8.70;99.90;;;;;;4985094;28;20038;-75
2021/09/18 05:09:59;;;;;;;285.98;56.60;;;8.70;99.90;;;;;;4998001;28;20054;-75
2021/09/18 05:12:26;;;;;;;241.98;52.30;;;8.60;99.90;;;;;;5000161;28;20381;-75
2021/09/18 05:14:53;;;;;;;197.82;48.42;;;8.60;99.90;;;;;;4968706;28;20272;-75
2021/09/18 05:17:19;;;;;;;146.00;44.55;;;8.70;99.90;;;;;;4984434;28;20096;-75
2021/09/18 05:19:46;;;;;;;130.07;45.20;;;8.70;99.90;;;;;;4983857;28;20104;-75
2021/09/18 05:22:13;;;;;;;136.38;45.75;;;8.80;99.90;;;;;;4965171;28;20047;-75
2021/09/18 05:24:40;;;;;;;123.80;43.33;;;8.70;99.90;;;;;;4982630;28;20089;-75
2021/09/18 05:27:07;;;;;;;122.40;42.88;;;8.70;99.90;;;;;;4985943;28;20063;-75
2021/09/18 05:29:34;;;;;;;112.25;42.00;;;8.70;99.90;;;;;;4967093;28;20082;-74
2021/09/18 05:32:01;;;;;;;90.22;38.08;;;8.70;99.90;;;;;;4968345;28;21156;-76
2021/09/18 05:34:28;;;;;;;110.97;40.50;;;8.80;99.90;;;;;;4967445;28;20192;-74
2021/09/18 05:36:54;;;;;;;188.40;52.65;;;8.80;99.90;;;;;;4995194;28;20221;-75
2021/09/18 05:39:21;;;;;;;178.65;52.58;;;8.80;99.90;;;;;;4968120;28;20054;-75
2021/09/18 05:41:48;;;;;;;130.73;46.78;;;8.80;99.90;;;;;;4967926;28;20058;-75
2021/09/18 05:44:15;;;;;;;118.03;44.88;;;8.60;99.90;;;;;;4979902;28;20578;-75
2021/09/18 05:46:42;;;;;;;122.57;43.17;;;8.50;99.90;;;;;;4947715;28;20059;-75
2021/09/18 05:49:09;;;;;;;92.22;38.13;;;8.50;99.90;;;;;;4966275;28;20055;-75
2021/09/18 05:51:35;;;;;;;93.80;40.05;;;8.50;99.90;;;;;;4965921;28;20054;-75
2021/09/18 05:54:02;;;;;;;87.45;37.30;;;8.50;99.90;;;;;;4983871;28;20050;-75
2021/09/18 05:56:29;;;;;;;99.88;38.83;;;8.50;99.90;;;;;;4979509;28;20278;-75
2021/09/18 05:59:00;;;;;;;98.13;39.25;;;8.50;99.90;;;;;;4984567;28;20141;-75
2021/09/18 06:01:27;;;;;;;112.38;41.15;;;8.60;99.90;;;;;;4984983;28;20127;-75
2021/09/18 06:03:54;;;;;;;168.85;47.85;;;8.60;99.90;;;;;;4988815;28;20558;-75
2021/09/18 06:06:21;;;;;;;133.40;43.00;;;8.60;99.90;;;;;;4969757;28;20163;-75
2021/09/18 06:08:48;;;;;;;129.48;42.35;;;8.60;99.90;;;;;;4982089;28;20058;-75
2021/09/18 06:11:14;;;;;;;162.35;51.65;;;8.70;99.90;;;;;;4982731;28;20108;-75
2021/09/18 06:13:42;;;;;;;157.57;49.92;;;8.80;99.90;;;;;;4983069;28;20684;-75
2021/09/18 06:16:12;;;;;;;188.95;54.17;;;8.90;99.90;;;;;;4983883;28;20105;-75
2021/09/18 06:18:40;;;;;;;109.03;43.63;;;9.00;99.90;;;;;;4983151;28;20050;-75
2021/09/18 06:21:07;;;;;;;88.03;36.03;;;9.10;99.90;;;;;;4982303;28;20542;-76
2021/09/18 06:23:37;;;;;;;89.32;37.28;;;9.30;99.90;;;;;;4983901;28;20233;-75
2021/09/18 06:26:04;;;;;;;93.63;38.50;;;9.50;99.90;;;;;;4981674;28;20046;-74
2021/09/18 06:28:31;;;;;;;131.13;45.10;;;9.50;99.90;;;;;;4983828;28;20100;-75
2021/09/18 06:30:58;;;;;;;90.18;38.45;;;9.60;99.90;;;;;;4984115;28;20112;-75
2021/09/18 06:33:25;;;;;;;102.55;40.50;;;9.60;99.90;;;;;;4983345;28;20054;-74
2021/09/18 06:35:52;;;;;;;79.07;35.38;;;9.80;99.90;;;;;;4985000;28;20166;-75
2021/09/18 06:38:22;;;;;;;85.15;37.83;;;9.90;99.90;;;;;;4983011;28;20113;-74
2021/09/18 06:40:55;;;;;;;96.20;39.05;;;10.00;99.90;;;;;;4967391;28;20104;-75
2021/09/18 06:43:23;;;;;;;81.43;35.58;;;10.00;99.90;;;;;;4984398;28;20392;-74
2021/09/18 06:45:51;;;;;;;85.03;35.42;;;10.20;99.90;;;;;;4985286;28;20058;-75
2021/09/18 06:48:18;;;;;;;84.80;36.17;;;10.20;99.90;;;;;;4968051;28;20426;-75
2021/09/18 06:50:44;;;;;;;79.57;34.60;;;10.40;99.90;;;;;;4982470;28;20134;-75
2021/09/18 06:53:11;;;;;;;74.10;34.80;;;10.40;99.90;;;;;;4982209;28;20057;-75
2021/09/18 06:55:38;;;;;;;75.03;32.33;;;10.30;99.90;;;;;;4984815;28;20084;-75
2021/09/18 06:58:05;;;;;;;69.15;31.65;;;10.40;99.90;;;;;;4999206;28;20495;-75
2021/09/18 07:00:32;;;;;;;62.90;31.00;;;10.50;99.90;;;;;;4999786;28;20363;-75
2021/09/18 07:02:59;;;;;;;64.57;31.25;;;10.60;99.90;;;;;;4984015;28;20511;-75
2021/09/18 07:05:26;;;;;;;70.28;32.60;;;10.70;99.90;;;;;;4983198;28;20041;-75
2021/09/18 07:07:53;;;;;;;60.67;31.60;;;10.70;99.90;;;;;;4984478;28;20133;-74
2021/09/18 07:10:20;;;;;;;56.03;31.08;;;10.80;99.90;;;;;;4965173;28;20152;-77
2021/09/18 07:12:47;;;;;;;50.00;29.50;;;11.00;99.90;;;;;;4981843;28;20120;-77
2021/09/18 07:15:14;;;;;;;54.63;29.42;;;11.20;99.90;;;;;;4982949;28;20054;-76
2021/09/18 07:17:41;;;;;;;49.15;29.23;;;11.30;99.90;;;;;;4988173;28;20050;-77
2021/09/18 07:20:09;;;;;;;47.55;28.45;;;11.40;99.90;;;;;;4982711;28;20058;-76
2021/09/18 07:22:36;;;;;;;41.95;25.55;;;11.50;99.90;;;;;;4983327;28;20044;-76
2021/09/18 07:25:03;;;;;;;28.70;20.88;;;11.70;99.90;;;;;;4983597;28;20054;-75
2021/09/18 07:27:30;;;;;;;24.83;17.70;;;12.20;99.90;;;;;;4974835;28;20066;-76
2021/09/18 07:29:58;;;;;;;22.15;16.58;;;12.60;99.90;;;;;;4984768;28;20466;-76
2021/09/18 07:32:25;;;;;;;18.63;14.73;;;12.90;99.90;;;;;;4982898;28;20045;-77
2021/09/18 07:34:52;;;;;;;17.50;13.77;;;13.20;99.90;;;;;;4983307;28;20129;-74
2021/09/18 07:37:18;;;;;;;12.75;9.98;;;13.50;99.90;;;;;;4982412;28;20502;-74
2021/09/18 07:39:45;;;;;;;5.82;4.03;;;13.80;99.90;;;;;;4983530;28;20047;-76
2021/09/18 07:42:12;;;;;;;8.82;6.97;;;13.90;99.90;;;;;;4982769;28;20043;-72
2021/09/18 07:44:39;;;;;;;13.00;7.95;;;13.80;99.90;;;;;;4987851;28;20078;-73
2021/09/18 07:47:06;;;;;;;10.18;8.02;;;14.10;99.90;;;;;;4984591;28;20050;-75
2021/09/18 07:49:32;;;;;;;10.93;7.38;;;14.50;99.90;;;;;;4984447;28;20050;-75
2021/09/18 07:51:59;;;;;;;9.10;6.82;;;15.00;99.90;;;;;;4983060;28;20061;-73
2021/09/18 07:54:26;;;;;;;8.02;7.03;;;15.30;99.90;;;;;;4982286;28;20105;-73
2021/09/18 07:57:13;;;;;;;7.43;5.82;;;15.50;99.90;;;;;;4982160;28;20112;-73
2021/09/18 07:59:39;;;;;;;8.05;5.65;;;15.90;99.90;;;;;;4984090;28;20065;-75
2021/09/18 08:02:07;;;;;;;8.18;5.93;;;15.20;99.90;;;;;;4999182;28;20056;-73
2021/09/18 08:04:35;;;;;;;8.18;5.13;;;15.30;99.90;;;;;;4977469;28;20042;-73
2021/09/18 08:07:02;;;;;;;5.22;4.72;;;15.70;99.90;;;;;;4962894;28;20596;-72
2021/09/18 08:09:29;;;;;;;9.25;5.10;;;15.90;99.90;;;;;;4962536;28;20475;-75
2021/09/18 08:11:57;;;;;;;4.68;4.30;;;16.20;99.90;;;;;;4964583;28;20109;-75
2021/09/18 08:14:24;;;;;;;6.13;4.18;;;16.40;99.90;;;;;;4960517;28;20545;-71
2021/09/18 08:16:51;;;;;;;5.45;4.43;;;16.60;99.90;;;;;;4981861;28;20073;-72
2021/09/18 08:19:19;;;;;;;7.22;5.82;;;16.80;99.90;;;;;;4984379;28;20055;-72
2021/09/18 08:21:46;;;;;;;7.20;6.60;;;16.50;99.90;;;;;;4984253;28;20051;-73
2021/09/18 08:24:13;;;;;;;6.75;5.90;;;16.80;99.90;;;;;;4949143;28;20051;-73
2021/09/18 08:26:39;;;;;;;6.53;5.95;;;16.50;99.90;;;;;;4966204;28;20232;-73
2021/09/18 08:29:06;;;;;;;6.85;5.65;;;16.70;99.90;;;;;;4983684;28;20058;-74
2021/09/18 08:31:33;;;;;;;5.72;5.32;;;17.10;99.90;;;;;;5002102;28;20403;-73
2021/09/18 08:34:00;;;;;;;6.82;5.75;;;16.90;99.90;;;;;;4969991;28;20069;-73
2021/09/18 08:36:29;;;;;;;5.78;5.38;;;16.80;99.90;;;;;;4976734;28;20058;-72
2021/09/18 08:38:56;;;;;;;5.65;5.30;;;16.90;99.90;;;;;;4988050;28;20050;-72
2021/09/18 08:41:24;;;;;;;6.35;5.28;;;16.90;99.90;;;;;;5000834;28;20086;-72
2021/09/18 08:43:51;;;;;;;5.43;4.95;;;16.60;99.90;;;;;;4988455;28;20046;-75
2021/09/18 08:46:18;;;;;;;5.53;5.00;;;16.20;99.90;;;;;;4987316;28;20120;-72
2021/09/18 08:48:46;;;;;;;4.95;4.47;;;16.20;99.90;;;;;;4985556;28;20064;-74
2021/09/18 08:51:13;;;;;;;5.18;4.90;;;16.30;99.90;;;;;;4987260;28;20584;-74
2021/09/18 08:53:40;;;;;;;4.90;4.55;;;16.10;99.90;;;;;;4981733;28;20446;-74
2021/09/18 08:56:07;;;;;;;5.50;5.20;;;16.40;99.90;;;;;;4986984;28;20120;-72
2021/09/18 08:58:34;;;;;;;6.13;5.70;;;16.90;99.90;;;;;;4987281;28;20133;-75
2021/09/18 09:01:02;;;;;;;6.60;6.10;;;17.20;99.90;;;;;;4996575;28;20085;-75
2021/09/18 09:03:32;;;;;;;6.05;5.75;;;16.90;99.90;;;;;;4967639;28;20042;-73
2021/09/18 09:06:21;;;;;;;5.88;5.05;;;16.50;99.90;;;;;;4988997;28;20137;-74
2021/09/18 09:08:57;;;;;;;6.00;5.80;;;17.00;99.90;;;;;;4999593;28;20074;-73
2021/09/18 09:11:27;;;;;;;7.45;6.85;;;17.70;99.90;;;;;;4986277;28;20061;-74
2021/09/18 09:13:58;;;;;;;7.05;6.68;;;18.10;99.90;;;;;;4984304;28;20054;-73
2021/09/18 09:16:27;;;;;;;6.95;6.55;;;18.40;99.90;;;;;;4984643;28;20074;-72
2021/09/18 09:18:54;;;;;;;7.03;6.70;;;18.30;99.90;;;;;;4983071;28;20155;-72
2021/09/18 09:21:29;;;;;;;6.20;5.80;;;17.80;99.90;;;;;;4983584;28;20054;-72
2021/09/18 09:24:06;;;;;;;7.40;7.00;;;17.50;99.90;;;;;;4982546;28;20108;-73
2021/09/18 09:26:35;;;;;;;6.95;6.65;;;18.00;99.90;;;;;;4977320;28;20255;-73
2021/09/18 09:29:02;;;;;;;7.10;5.97;;;17.80;99.90;;;;;;4985634;28;20250;-73
2021/09/18 09:31:32;;;;;;;5.57;5.32;;;16.60;99.90;;;;;;4986563;28;20046;-73
2021/09/18 09:34:00;;;;;;;7.20;6.60;;;17.10;99.90;;;;;;4984626;28;20066;-73
2021/09/18 09:36:29;;;;;;;5.88;5.43;;;17.90;99.90;;;;;;4985191;28;20057;-73
2021/09/18 09:38:59;;;;;;;5.88;5.63;;;18.20;99.90;;;;;;4986085;28;20570;-73
2021/09/18 09:41:33;;;;;;;6.55;5.95;;;18.40;99.90;;;;;;4986744;28;20050;-73
2021/09/18 09:44:02;;;;;;;6.90;6.60;;;18.40;99.90;;;;;;4985682;28;20463;-73
2021/09/18 09:46:29;;;;;;;6.65;6.13;;;18.40;99.90;;;;;;4985047;28;20124;-74
2021/09/18 09:49:23;;;;;;;5.90;5.70;;;18.40;99.90;;;;;;4984982;28;20054;-74
2021/09/18 09:51:50;;;;;;;6.70;6.28;;;18.30;99.90;;;;;;4982314;28;20054;-73
2021/09/18 09:54:18;;;;;;;7.10;6.70;;;18.40;99.90;;;;;;4980507;28;20053;-74
2021/09/18 09:56:45;;;;;;;7.43;7.03;;;18.80;99.90;;;;;;4985815;28;20488;-74
2021/09/18 09:59:12;;;;;;;7.82;7.40;;;18.70;99.90;;;;;;4984178;28;20439;-74
2021/09/18 10:01:39;;;;;;;7.20;6.85;;;18.20;99.90;;;;;;4985872;28;20590;-73
2021/09/18 10:04:06;;;;;;;6.70;6.30;;;17.80;99.90;;;;;;4985490;28;20051;-74
2021/09/18 10:06:33;;;;;;;7.43;7.05;;;18.30;99.90;;;;;;4985992;28;20058;-73
2021/09/18 10:09:01;;;;;;;6.90;6.40;;;18.50;99.90;;;;;;4982786;28;20050;-73
2021/09/18 10:11:34;;;;;;;7.90;7.30;;;18.80;99.90;;;;;;4986338;28;20069;-74
2021/09/18 10:14:02;;;;;;;7.43;6.97;;;19.00;99.90;;;;;;4968964;28;20324;-74
2021/09/18 10:16:31;;;;;;;9.07;8.57;;;18.90;99.90;;;;;;4984770;28;20337;-73
2021/09/18 10:19:02;;;;;;;8.32;8.00;;;17.80;99.90;;;;;;4984043;28;20414;-73
2021/09/18 10:24:35;;;;;;;;;;;17.70;99.90;;;;;;4941563;28;20344;-73
2021/09/18 10:27:17;;;;;;;7.60;7.00;;;18.10;99.90;;;;;;4942497;28;19951;-74
2021/09/18 10:29:45;;;;;;;7.63;7.22;;;18.80;99.90;;;;;;4950643;28;20054;-73
2021/09/18 10:32:12;;;;;;;9.10;8.60;;;19.20;99.90;;;;;;4985078;28;20053;-73
2021/09/18 10:34:38;;;;;;;8.88;8.48;;;19.60;99.90;;;;;;4985334;28;20066;-74
2021/09/18 10:37:35;;;;;;;8.93;8.52;;;19.30;99.90;;;;;;4983250;28;20078;-74
2021/09/18 10:40:11;;;;;;;9.48;8.80;;;18.80;99.90;;;;;;4983909;28;20057;-73
2021/09/18 10:42:41;;;;;;;7.82;7.43;;;17.90;99.90;;;;;;4985983;28;20058;-73
2021/09/18 10:45:10;;;;;;;7.07;6.40;;;17.20;99.90;;;;;;4984333;28;20058;-73
2021/09/18 10:47:48;;;;;;;7.32;6.93;;;17.20;99.90;;;;;;4983560;28;20050;-73
2021/09/18 10:50:20;;;;;;;6.63;6.22;;;17.40;99.90;;;;;;4982978;28;20069;-73
2021/09/18 10:52:58;;;;;;;7.88;7.47;;;17.30;99.90;;;;;;4979825;28;20058;-72
2021/09/18 10:55:24;;;;;;;5.78;5.55;;;17.40;99.90;;;;;;4984714;28;20128;-73
2021/09/18 10:58:02;;;;;;;7.68;7.32;;;17.70;99.90;;;;;;4984389;28;20463;-73
2021/09/18 11:00:29;;;;;;;8.05;7.65;;;18.00;99.90;;;;;;4985660;28;20054;-74
2021/09/18 11:02:59;;;;;;;8.30;7.80;;;18.50;99.90;;;;;;4983678;28;20073;-73
2021/09/18 11:05:27;;;;;;;8.48;8.07;;;18.70;99.90;;;;;;4973513;28;20050;-73
2021/09/18 11:08:00;;;;;;;8.20;7.90;;;18.80;99.90;;;;;;4984940;28;20074;-73
2021/09/18 11:10:29;;;;;;;9.50;9.10;;;19.30;99.90;;;;;;4982512;28;20050;-72
2021/09/18 11:13:08;;;;;;;8.57;8.18;;;19.70;99.90;;;;;;4983674;28;20062;-73
2021/09/18 11:15:54;;;;;;;9.30;8.95;;;19.40;99.90;;;;;;4967189;28;20547;-73
2021/09/18 11:18:41;;;;;;;9.77;9.27;;;19.30;99.90;;;;;;4967831;28;20051;-73
2021/09/18 11:21:40;;;;;;;9.50;9.20;;;19.10;99.90;;;;;;4963084;28;20543;-72
2021/09/18 11:24:21;;;;;;;9.77;9.38;;;19.40;99.90;;;;;;4983508;28;20061;-73
2021/09/18 11:26:51;;;;;;;9.75;9.25;;;19.30;99.90;;;;;;4987243;28;20101;-73
2021/09/18 11:29:22;;;;;;;8.93;8.50;;;19.40;99.90;;;;;;4983768;28;20046;-73
2021/09/18 11:31:54;;;;;;;9.27;8.70;;;18.80;99.90;;;;;;4983021;28;20577;-73
2021/09/18 11:34:30;;;;;;;8.95;8.45;;;18.90;99.90;;;;;;4983847;28;20054;-73
2021/09/18 11:36:58;;;;;;;8.00;7.70;;;18.70;99.90;;;;;;4965262;28;20053;-75
2021/09/18 11:39:44;;;;;;;8.82;8.43;;;17.90;99.90;;;;;;4982459;28;20046;-74
2021/09/18 11:42:11;;;;;;;9.15;8.65;;;17.90;99.90;;;;;;4981359;28;20050;-74
2021/09/18 11:44:40;;;;;;;8.27;7.97;;;17.70;99.90;;;;;;4982563;28;20190;-75
2021/09/18 11:47:07;;;;;;;8.00;7.65;;;17.80;99.90;;;;;;4950913;28;20043;-75
2021/09/18 11:49:34;;;;;;;8.27;7.90;;;18.10;99.90;;;;;;4984647;28;20109;-73
2021/09/18 11:52:02;;;;;;;8.82;8.32;;;17.90;99.90;;;;;;4981942;28;20050;-73
2021/09/18 11:54:31;;;;;;;8.43;7.90;;;17.60;99.90;;;;;;4980949;28;20116;-73
2021/09/18 11:57:18;;;;;;;7.63;7.32;;;17.30;99.90;;;;;;4983859;28;20073;-73
2021/09/18 11:59:45;;;;;;;9.02;8.73;;;17.70;99.90;;;;;;4998056;28;20514;-72
2021/09/18 12:02:12;;;;;;;8.82;8.38;;;18.10;99.90;;;;;;4987791;28;20105;-70
2021/09/18 12:04:49;;;;;;;8.02;7.70;;;17.90;99.90;;;;;;4986259;28;20045;-71
2021/09/18 12:07:16;;;;;;;9.13;8.73;;;18.20;99.90;;;;;;4977929;28;20100;-71
2021/09/18 12:09:44;;;;;;;8.18;7.88;;;18.40;99.90;;;;;;4996792;28;20085;-71
2021/09/18 12:12:11;;;;;;;7.43;6.97;;;18.00;99.90;;;;;;4987797;28;20081;-70
2021/09/18 12:14:38;;;;;;;6.72;6.43;;;17.60;99.90;;;;;;4987347;28;20062;-71
2021/09/18 12:17:17;;;;;;;7.55;7.15;;;17.30;99.90;;;;;;4986592;28;20502;-70
2021/09/18 12:19:45;;;;;;;7.07;6.68;;;17.30;99.90;;;;;;4987873;28;20078;-72
2021/09/18 12:22:13;;;;;;;7.35;7.15;;;17.50;99.90;;;;;;4987717;28;20050;-71
2021/09/18 12:24:44;;;;;;;7.90;7.60;;;17.70;99.90;;;;;;4987705;28;20518;-71
2021/09/18 12:27:31;;;;;;;7.72;7.43;;;17.60;99.90;;;;;;4977094;28;20053;-70
2021/09/18 12:30:07;;;;;;;8.07;7.75;;;17.60;99.90;;;;;;4985964;28;20054;-71
2021/09/18 12:32:34;;;;;;;7.45;6.93;;;17.50;99.90;;;;;;4977552;28;20050;-71
2021/09/18 12:35:06;;;;;;;6.85;6.55;;;17.40;99.90;;;;;;4985459;28;20042;-71
2021/09/18 12:37:36;;;;;;;6.10;5.90;;;17.50;99.90;;;;;;4986202;28;20343;-71
2021/09/18 12:40:19;;;;;;;6.80;6.50;;;17.60;99.90;;;;;;4985997;28;20145;-70
2021/09/18 12:43:25;;;;;;;6.38;5.85;;;17.40;99.90;;;;;;4986235;28;20043;-71
2021/09/18 12:46:02;;;;;;;;;;;17.90;99.90;;;;;;4913428;29;20604;-71